x

Neah Bay, - 6nm North Of Cape Flattery, Wa (traffic Separation Lighted Buoy) (46087) Wave Buoy

7:20pm - Fri 23rd Jun 2017 All times are PDT. -7 hours from GMT.

  • Sig Wave height 3.6ft
  • Swell Direction
  • Peak Period 8s
  • Average Period 6s
  • Wind
    4mph, 7mph gusts
  • Sea Temp 56°f
  • 空気 Temp 60°f
  • Sea Pressure 1021.3mb
  • Neah Bay, - 6nm North Of Cape Flattery, Wa     (traffic Separation Lighted Buoy)
  • Neah Bay, - 6nm North Of Cape Flattery, Wa     (traffic Separation Lighted Buoy)

More Historic Weather Station data

Upgrade to MSW Pro to gain access to the past 30 days of data for over 8000 Wavebouys and Weather Stations around the globe.

Join Pro

Comparision Forecast

View Surf forecast
   
Fri 06/23 7:20pm 3.5ft 8s 6s 4 7 mph 1021.3mb 56f 60f
6:50pm 3.5ft 7s 6s 2 2 mph 1021.4mb 57f 60f
6:20pm 3.5ft 7s 6s  -  0 mph 1021.7mb 57f 60f
5:50pm 3.5ft 7s 6s 4 4 mph 1022.2mb 57f 59f
5:20pm 3.5ft 6s 6s 7 9 mph 1022.3mb 56f 58f
4:50pm 3.5ft 7s 6s 9 9 mph 1022.5mb 56f 58f
4:20pm 3.5ft 7s 6s 9 9 mph 1022.8mb 56f 58f
3:50pm 3.5ft 8s 6s 7 7 mph 1022.9mb 56f 59f
3:20pm 4.5ft 7s 6s 2 4 mph 1022.9mb 55f 59f
2:50pm 4.5ft 7s 6s 4 7 mph 1022.7mb 55f 58f
2:20pm 4ft 8s 6s 4 7 mph 1023mb 55f 58f
1:50pm 4.5ft 7s 6s 7 7 mph 1023mb 55f 57f
1:20pm 4.5ft 8s 6s 7 9 mph 1023.1mb 55f 57f
12:50pm 5ft 7s 6s 9 11 mph 1023.2mb 55f 56f
12:20pm 5ft 7s 6s 9 11 mph 1023.1mb 54f 56f
11:50am 5ft 6s 6s 7 9 mph 1023.4mb 54f 55f
11:20am 4.5ft 6s 6s 7 9 mph 1023.3mb 54f 55f
10:50am 5ft 7s 7s 9 9 mph 1023.4mb 54f 55f
10:20am 5.5ft 8s 7s 9 11 mph 1023.5mb 54f 55f
9:50am 5ft 8s 7s 9 11 mph 1023.7mb 54f 54f
9:20am 5ft 7s 7s 9 11 mph 1023.9mb 54f 54f
8:50am 4.5ft 7s 7s 11 13 mph 1023.9mb 54f 54f
8:20am 5ft 8s 7s 7 9 mph 1024mb 54f 54f
7:50am 5ft 7s 7s 7 9 mph 1024mb 54f 54f
7:20am 5ft 8s 7s 7 9 mph 1023.8mb 54f 54f
6:20am 5ft 8s 7s 9 11 mph 1023.4mb 54f 54f
5:50am 5ft 8s 7s 9 11 mph 1023.3mb 54f 53f
5:20am 5ft 7s 7s 7 7 mph 1023.6mb 55f 54f
4:50am 5ft 8s 7s 9 11 mph 1023.4mb 55f 54f
4:20am 4.5ft 7s 6s 7 9 mph 1023.4mb 55f 54f
3:50am 5ft 8s 6s 7 9 mph 1023.3mb 55f 55f
3:20am 5ft 7s 6s 7 9 mph 1023.3mb 55f 56f
2:50am 6ft 7s 6s 2 4 mph 1023.3mb 55f 55f
2:20am 5.5ft 8s 6s 2 4 mph 1023.1mb 55f 55f
1:50am 6ft 8s 6s 4 7 mph 1023.4mb 55f 55f
1:20am 5.5ft 9s 6s 7 7 mph 1023.4mb 56f 55f
12:50am 5.5ft 9s 6s 9 11 mph 1023.4mb 56f 55f
12:20am 5ft 8s 6s 4 7 mph 1023.4mb 56f 55f
Thu 06/22 11:50pm 5ft 9s 7s 4 4 mph 1023.8mb 56f 55f
11:20pm 4.5ft 8s 6s 4 7 mph 1024mb 56f 55f
10:50pm 4.5ft 9s 7s 4 7 mph 1024mb 57f 55f
10:20pm 5ft 9s 6s 4 7 mph 1024.2mb 57f 56f
9:50pm 5ft 9s 7s 9 11 mph 1024.2mb 57f 56f
9:20pm 5ft 9s 7s 9 11 mph 1024mb 57f 56f
8:50pm 5ft 9s 7s 7 9 mph 1024.1mb 57f 56f
8:20pm 5ft 10s 7s 4 4 mph 1024.2mb 57f 56f
7:50pm 4.5ft 9s 7s 4 7 mph 1024.5mb 57f 56f
7:20pm 5ft 10s 7s 4 7 mph 1024.5mb 57f 56f
6:50pm 5ft 10s 7s 4 7 mph 1024.7mb 57f 56f
6:20pm 5ft 10s 7s 7 7 mph 1024.7mb 56f 56f
5:50pm 5.5ft 9s 7s 7 9 mph 1024.9mb 56f 55f
5:20pm 6ft 10s 7s 7 9 mph 1025.1mb 55f 55f
4:50pm 6ft 10s 7s 9 9 mph 1025.2mb 55f 55f
4:20pm 6ft 8s 7s 7 9 mph 1025.5mb 56f 55f
3:50pm 5.5ft 10s 7s 9 11 mph 1025.6mb 56f 54f
3:20pm 5ft 8s 7s 9 11 mph 1025.7mb 56f 54f
2:50pm 6ft 7s 7s 11 11 mph 1025.8mb 57f 55f
2:20pm 6ft 10s 7s 9 11 mph 1026.2mb 57f 55f
1:50pm 6ft 7s 7s 9 9 mph 1026.4mb 57f 55f
1:20pm 6ft 8s 7s 7 9 mph 1026.5mb 56f 56f
12:50pm 7ft 9s 7s  -  4 mph 1026.4mb 56f 56f
12:20pm 7ft 9s 7s 7 9 mph 1026.2mb 55f 56f
11:50am 7.5ft 7s 7s 7 9 mph 1026.1mb 55f 55f
11:20am 7.5ft 10s 7s 9 11 mph 1026.1mb 55f 55f
10:50am 7ft 10s 7s 7 11 mph 1026.3mb 54f 54f
10:20am 8ft 9s 7s 9 11 mph 1026.4mb 54f 54f
9:50am 8ft 9s 7s 7 11 mph 1026.7mb 53f 53f
9:20am 8ft 10s 8s 9 13 mph 1026.6mb 53f 53f
8:50am 8ft 10s 8s 9 11 mph 1026.4mb 53f 53f
8:20am 7ft 9s 8s 7 9 mph 1026.8mb 53f 53f
7:50am 7.5ft 9s 8s 4 9 mph 1026.6mb 53f 52f
7:20am 7.5ft 8s 8s 7 9 mph 1026mb 53f 53f
6:50am 8ft 10s 8s 9 11 mph 1026.1mb 52f 52f
6:20am 8.5ft 10s 8s 9 11 mph 1026mb 52f 52f
5:50am 9ft 8s 8s 7 11 mph 1025.8mb 52f 51f
5:20am 8.5ft 10s 8s 9 11 mph 1025.8mb 52f 52f
4:50am 9ft 10s 8s 7 11 mph 1025.7mb 52f 52f
4:20am 8.5ft 8s 8s 7 9 mph 1025.7mb 52f 52f
3:50am 8ft 8s 7s 7 9 mph 1025.6mb 52f 52f
3:20am 8ft 8s 7s 9 11 mph 1025.4mb 52f 52f
2:50am 8ft 10s 7s 4 7 mph 1025.6mb 52f 54f
2:20am 8ft 9s 7s 4 7 mph 1025.6mb 52f 53f
1:50am 7.5ft 9s 7s 2 7 mph 1025.5mb 53f 53f
1:20am 7ft 10s 7s 4 7 mph 1025.6mb 53f 53f
12:50am 8ft 8s 7s  -  2 mph 1025.6mb 53f 52f
12:20am 8.5ft 10s 7s 2 2 mph 1025.6mb 53f 52f
Wed 06/21 11:50pm 7ft 10s 7s 2 4 mph 1025.3mb 53f 53f
11:20pm 8ft 10s 7s 2 4 mph 1025.3mb 53f 53f
10:50pm 7ft 10s 7s 2 4 mph 1025.3mb 53f 53f
10:20pm 7.5ft 10s 7s 4 7 mph 1025.3mb 53f 54f
9:50pm 8ft 10s 7s 9 11 mph 1025.2mb 53f 54f
9:20pm 8ft 9s 7s 11 13 mph 1025mb 54f 54f
8:50pm 7.5ft 9s 7s 9 13 mph 1025.2mb 54f 54f
8:20pm 8ft 9s 7s 16 18 mph 1024.9mb 54f 55f
7:50pm 8ft 9s 7s 16 18 mph 1025mb 54f 55f
7:20pm 8ft 10s 7s 13 18 mph 1025.3mb 54f 55f
6:50pm 7ft 10s 7s 11 13 mph 1025.7mb 53f 55f
6:20pm 8ft 7s 7s 11 13 mph 1025.7mb 53f 55f
5:50pm 6.5ft 9s 6s 11 13 mph 1025.9mb 53f 54f
5:20pm 7.5ft 9s 7s 11 13 mph 1026.2mb 53f 54f
4:50pm 7.5ft 7s 7s 11 16 mph 1026.3mb 53f 54f
4:20pm 7ft 7s 6s 13 16 mph 1026.4mb 53f 54f
3:50pm 6.5ft 7s 6s 11 13 mph 1026.5mb 53f 54f
3:20pm 6.5ft 7s 6s 11 13 mph 1026.7mb 53f 54f
2:50pm 6ft 7s 6s 11 13 mph 1026.8mb 53f 54f
2:20pm 6ft 7s 6s 16 18 mph 1026.8mb 53f 54f
1:50pm 6ft 7s 6s 13 16 mph 1026.8mb 53f 54f
1:20pm 6ft 7s 6s 13 18 mph 1026.7mb 53f 54f
12:50pm 5.5ft 6s 6s 16 18 mph 1026.6mb 53f 54f
12:20pm 5.5ft 7s 6s 13 18 mph 1026.6mb 53f 54f
11:50am 5.5ft 6s 6s 11 16 mph 1026.4mb 53f 54f
11:20am 5.5ft 7s 6s 11 13 mph 1026.5mb 53f 53f
10:50am 5ft 6s 6s 11 16 mph 1026.6mb 52f 53f
10:20am 6ft 7s 6s 9 11 mph 1026.6mb 52f 53f
9:50am 5.5ft 7s 6s 9 11 mph 1026.4mb 52f 53f
9:20am 6ft 7s 6s 7 9 mph 1026.5mb 52f 53f
8:50am 6ft 6s 6s 7 7 mph 1026.4mb 53f 53f
8:20am 6ft 7s 7s 7 9 mph 1026mb 53f 53f
7:50am 5.5ft 7s 6s 7 9 mph 1025.6mb 52f 53f
7:20am 6ft 7s 7s 7 9 mph 1025.3mb 52f 53f
6:50am 6ft 7s 7s 7 11 mph 1025.4mb 52f 53f
6:20am 5.5ft 7s 6s 9 11 mph 1025.3mb 52f 53f
5:50am 5ft 7s 6s 13 18 mph 1025.1mb 52f 53f
5:20am 6ft 8s 7s 13 16 mph 1025.1mb 52f 53f
4:50am 5.5ft 7s 6s 13 16 mph 1024.8mb 52f 53f
4:20am 5.5ft 7s 6s 13 18 mph 1024.9mb 51f 53f
3:50am 6ft 7s 6s 13 16 mph 1025mb 51f 53f
3:20am 6ft 7s 6s 16 18 mph 1024.8mb 51f 53f
2:50am 6.5ft 7s 6s 18 20 mph 1024.6mb 52f 53f
2:20am 7ft 7s 6s 13 18 mph 1024.4mb 52f 53f
1:50am 7ft 7s 6s 13 18 mph 1024.5mb 52f 53f
1:20am 7ft 7s 6s 16 20 mph 1024.2mb 52f 53f
12:50am 7ft 7s 6s 18 22 mph 1024.1mb 52f 53f
12:20am 8ft 6s 6s 18 22 mph 1023.9mb 52f 53f
Tue 06/20 11:50pm 7ft 8s 6s 20 25 mph 1023.9mb 52f 53f
11:20pm 7.5ft 7s 6s 22 25 mph 1023.6mb 52f 54f
10:50pm 7ft 7s 6s 22 27 mph 1023.6mb 52f 54f
10:20pm 7ft 7s 6s 22 25 mph 1023.7mb 52f 54f
9:50pm 7ft 8s 6s 20 25 mph 1023.6mb 53f 54f
9:20pm 7ft 7s 6s 16 20 mph 1023.5mb 53f 54f
8:50pm 6.5ft 7s 6s 16 20 mph 1023.7mb 53f 54f
8:20pm 7ft 7s 6s 18 20 mph 1023.6mb 54f 55f
7:50pm 6ft 7s 6s 16 18 mph 1023.7mb 54f 55f
7:20pm 6.5ft 7s 6s 13 18 mph 1023.5mb 54f 55f
6:50pm 6.5ft 7s 6s 18 22 mph 1023.5mb 53f 55f
6:20pm 6.5ft 7s 6s 18 25 mph 1023.4mb 53f 55f
5:50pm 6.5ft 6s 6s 18 22 mph 1023.6mb 53f 55f
5:20pm 6.5ft 6s 6s 18 22 mph 1023.6mb 53f 55f
4:50pm 6ft 6s 6s 18 22 mph 1023.6mb 53f 55f
4:20pm 6ft 6s 6s 20 25 mph 1023.4mb 53f 55f
3:50pm 6ft 6s 6s 20 25 mph 1023mb 53f 55f
3:20pm 6ft 6s 6s 18 22 mph 1022.9mb 53f 55f
2:50pm 6ft 7s 6s 20 25 mph 1022.7mb 53f 55f
2:20pm 6ft 6s 6s 18 22 mph 1022.5mb 53f 54f
1:50pm 6ft 11s 6s 20 25 mph 1022.2mb 53f 55f
1:20pm 6ft 6s 6s 22 27 mph 1021.9mb 53f 55f
12:50pm 5.5ft 5s 5s 20 25 mph 1021.6mb 53f 55f
12:20pm 5.5ft 10s 5s 22 25 mph 1021.4mb 54f 55f
11:50am 5.5ft 10s 6s 20 25 mph 1021.2mb 54f 55f
11:20am 5ft 10s 6s 18 22 mph 1020.7mb 54f 55f
10:50am 5ft 10s 5s 20 25 mph 1020.4mb 54f 55f
10:20am 5ft 9s 5s 16 20 mph 1020.2mb 54f 55f
9:50am 4.5ft 10s  -  16 20 mph 1019.9mb 54f 55f
9:20am 5ft 10s 6s 18 20 mph 1019.7mb 54f 55f
8:50am 5ft 8s 6s 18 22 mph 1019.5mb 54f 55f
8:20am 4.5ft 10s 7s 16 18 mph 1019.3mb 55f 55f
7:50am 4.5ft 10s 7s 18 22 mph 1019mb 56f 55f
7:20am 4.5ft 8s 7s 16 20 mph 1018.7mb 57f 55f
6:20am 3.5ft 9s 8s 16 18 mph 1018mb 59f 57f
5:50am 4ft 8s 8s 13 16 mph 1017.6mb 59f 57f
5:20am 3.5ft 9s 8s 7 9 mph 1017.4mb 59f 57f
4:50am 4ft 10s 8s 9 11 mph 1017.3mb 59f 57f
4:20am 3.5ft 10s 8s 7 7 mph 1017.2mb 59f 57f
3:50am 3.5ft 11s 8s 7 9 mph 1017.4mb 59f 57f